Impacts METAR Board
IDs:

KDFW - Dallas-Ft Worth Intl, TX, US

Updated at: 2100 UTC 24 Apr 2018
Potential Impact None Slight Moderate High
Time 24/09Z 24/10Z 24/11Z 24/12Z 24/13Z 24/14Z 24/15Z 24/16Z 24/17Z 24/18Z 24/19Z 24/20Z 24/21Z
Temp59 55 57 58 59 66 71 75 76 78 80 82 83
Dewpt52 51 52 52 54 54 53 50 50 48 47 48 47
Altim30.02 30.03 30.04 30.07 30.08 30.10 30.11 30.12 30.10 30.08 30.06 30.04 30.00
VIS10 10 10 10 10 10 10 10 10 10 10 10 10
CIG-- -- -- -- -- -- -- -- -- -- -- -- --
CoverCLRCLRCLRFEWCLRCLRCLRCLRCLRFEWFEWFEWSCT
FltCatVFRVFRVFRVFRVFRVFRVFRVFRVFRVFRVFRVFRVFR
WX--------------------------
WDir3600210320010040900600140
WSpd3 0 4 3 0 5 4 7 5 4 6 3 7
WGst-- -- -- -- -- -- -- -- -- -- -- -- --
Raw hourly METARs
KDFW 240853Z 36003KT 10SM CLR 15/11 A3002 RMK AO2 SLP159 T01500111 55004 $
KDFW 240953Z 00000KT 10SM CLR 13/11 A3003 RMK AO2 SLP163 T01280106 $
KDFW 241053Z 21004KT 10SM CLR 14/11 A3004 RMK AO2 SLP168 T01390111 $
KDFW 241153Z 32003KT 10SM FEW250 14/11 A3007 RMK AO2 SLP176 T01440111 10172 20117 53017 $
KDFW 241253Z 00000KT 10SM CLR 15/12 A3008 RMK AO2 SLP181 T01500122 $
KDFW 241353Z 01005KT 10SM CLR 19/12 A3010 RMK AO2 SLP185 T01890122 $
KDFW 241453Z VRB04KT 10SM CLR 22/12 A3011 RMK AO2 SLP190 T02170117 51015 $
KDFW 241553Z 04007KT 10SM CLR 24/10 A3012 RMK AO2 SLP193 T02390100
KDFW 241653Z 09005KT 10SM CLR 24/10 A3010 RMK AO2 SLP186 T02440100
KDFW 241753Z VRB04KT 10SM FEW250 26/09 A3008 RMK AO2 SLP179 T02560089 10267 20122 58012
KDFW 241853Z 06006KT 10SM FEW010 FEW250 27/08 A3006 RMK AO2 SLP171 FU FEW010 W T02670083
KDFW 241953Z VRB03KT 10SM FEW250 28/09 A3004 RMK AO2 SLP164 T02780089
KDFW 242053Z 14007KT 10SM SCT250 28/08 A3000 RMK AO2 SLP154 T02830083 58024 $



Page loaded:  21:06 UTC  |   02:06 PM Pacific  |   03:06 PM Mountain  |   04:06 PM Central  |   05:06 PM Eastern

 

ADVISORIES

FORECASTS

FORECASTS

OBSERVATIONS

USER TOOLS

ABOUT US